createdAt,value
2022-11-19T00:02:01.734Z,-3.83
2022-11-19T00:04:30.066Z,-3.84
2022-11-19T00:06:58.775Z,-3.85
2022-11-19T00:09:26.610Z,-3.85
2022-11-19T00:12:13.521Z,-3.88
2022-11-19T00:14:41.314Z,-3.91
2022-11-19T00:17:09.420Z,-3.91
2022-11-19T00:19:37.137Z,-3.91
2022-11-19T00:22:05.101Z,-3.91
2022-11-19T00:24:32.933Z,-3.90
2022-11-19T00:27:01.081Z,-3.92
2022-11-19T00:29:28.976Z,-3.93
2022-11-19T00:31:57.419Z,-3.93
2022-11-19T00:34:25.342Z,-3.95
2022-11-19T00:36:53.144Z,-3.94
2022-11-19T00:39:21.770Z,-3.98
2022-11-19T00:41:50.557Z,-3.99
2022-11-19T00:44:18.298Z,-3.98
2022-11-19T00:46:46.118Z,-3.99
2022-11-19T00:49:13.841Z,-3.98
2022-11-19T00:51:41.605Z,-3.97
2022-11-19T00:54:09.425Z,-3.97
2022-11-19T00:56:37.493Z,-3.96
2022-11-19T00:59:05.882Z,-3.95
2022-11-19T01:01:34.950Z,-3.91
2022-11-19T01:04:02.854Z,-3.88
2022-11-19T01:06:30.609Z,-3.86
2022-11-19T01:08:58.969Z,-3.85
2022-11-19T01:11:31.921Z,-3.83
2022-11-19T01:14:01.364Z,-3.80
2022-11-19T01:16:36.160Z,-3.75
2022-11-19T01:19:06.565Z,-3.71
2022-11-19T01:21:36.759Z,-3.69
2022-11-19T01:24:05.987Z,-3.67
2022-11-19T01:26:33.980Z,-3.66
2022-11-19T01:29:01.818Z,-3.64
2022-11-19T01:31:30.349Z,-3.62
2022-11-19T01:33:59.079Z,-3.59
2022-11-19T01:36:29.356Z,-3.54
2022-11-19T01:38:58.450Z,-3.52
2022-11-19T01:41:32.996Z,-3.51
2022-11-19T01:44:05.915Z,-3.49
2022-11-19T01:46:37.245Z,-3.48
2022-11-19T01:49:17.189Z,-3.46
2022-11-19T01:52:02.984Z,-3.44
2022-11-19T01:54:47.425Z,-3.42
2022-11-19T01:57:18.404Z,-3.41
2022-11-19T01:59:51.626Z,-3.40
2022-11-19T02:02:23.014Z,-3.37
2022-11-19T02:04:52.612Z,-3.36
2022-11-19T02:07:26.621Z,-3.36
2022-11-19T02:09:56.615Z,-3.37
2022-11-19T02:12:46.731Z,-3.37
2022-11-19T02:15:27.808Z,-3.37
2022-11-19T02:18:24.856Z,-3.36
2022-11-19T02:21:07.417Z,-3.34
2022-11-19T02:24:08.628Z,-3.31
2022-11-19T02:26:48.498Z,-3.27
2022-11-19T02:29:32.088Z,-3.23
2022-11-19T02:32:12.603Z,-3.20
2022-11-19T02:34:58.377Z,-3.18
2022-11-19T02:37:47.461Z,-3.20
2022-11-19T02:40:29.012Z,-3.19
2022-11-19T02:43:24.705Z,-3.15
2022-11-19T02:46:05.513Z,-3.11
2022-11-19T02:48:39.081Z,-3.07
2022-11-19T02:51:08.326Z,-3.03
2022-11-19T02:53:36.434Z,-3.00
2022-11-19T02:56:18.299Z,-2.96
2022-11-19T02:59:13.483Z,-2.91
2022-11-19T03:02:05.196Z,-2.87
2022-11-19T03:04:33.534Z,-2.86
2022-11-19T03:07:11.209Z,-2.86
2022-11-19T03:09:45.022Z,-2.84
2022-11-19T03:12:35.723Z,-2.83
2022-11-19T03:15:44.411Z,-2.86
2022-11-19T03:18:19.375Z,-2.86
2022-11-19T03:20:56.433Z,-2.84
2022-11-19T03:23:32.066Z,-2.81
2022-11-19T03:26:23.190Z,-2.79
2022-11-19T03:28:53.962Z,-2.79
2022-11-19T03:31:24.197Z,-2.77
2022-11-19T03:33:56.025Z,-2.74
2022-11-19T03:36:31.657Z,-2.71
2022-11-19T03:39:07.979Z,-2.69
2022-11-19T03:41:39.709Z,-2.65
2022-11-19T03:44:21.248Z,-2.63
2022-11-19T03:46:57.654Z,-2.63
2022-11-19T03:49:34.084Z,-2.63
2022-11-19T03:52:10.872Z,-2.62
2022-11-19T03:54:40.714Z,-2.60
2022-11-19T03:57:11.954Z,-2.60
2022-11-19T03:59:39.758Z,-2.58
2022-11-19T04:02:11.004Z,-2.58
2022-11-19T04:04:39.316Z,-2.58
2022-11-19T04:07:15.501Z,-2.54
2022-11-19T04:09:44.350Z,-2.53
2022-11-19T04:12:17.149Z,-2.52
2022-11-19T04:14:46.069Z,-2.51
2022-11-19T04:17:15.197Z,-2.49
2022-11-19T04:19:42.985Z,-2.48
2022-11-19T04:22:10.771Z,-2.45
2022-11-19T04:24:38.573Z,-2.43
2022-11-19T04:27:06.383Z,-2.44
2022-11-19T04:29:34.125Z,-2.45
2022-11-19T04:32:01.812Z,-2.44
2022-11-19T04:34:29.802Z,-2.44
2022-11-19T04:36:57.576Z,-2.45
2022-11-19T04:39:25.898Z,-2.43
2022-11-19T04:41:53.817Z,-2.41
2022-11-19T04:44:21.556Z,-2.38
2022-11-19T04:46:49.505Z,-2.36
2022-11-19T04:49:18.483Z,-2.34
2022-11-19T04:51:47.034Z,-2.32
2022-11-19T04:54:14.783Z,-2.31
2022-11-19T04:56:42.767Z,-2.30
2022-11-19T04:59:10.476Z,-2.28
2022-11-19T05:01:38.835Z,-2.27
2022-11-19T05:04:06.688Z,-2.26
2022-11-19T05:06:34.427Z,-2.26
2022-11-19T05:09:02.466Z,-2.25
2022-11-19T05:11:30.239Z,-2.25
2022-11-19T05:13:58.441Z,-2.25
2022-11-19T05:16:26.606Z,-2.24
2022-11-19T05:18:54.330Z,-2.24
2022-11-19T05:21:22.609Z,-2.24
2022-11-19T05:23:50.301Z,-2.24
2022-11-19T05:26:18.269Z,-2.27
2022-11-19T05:28:46.725Z,-2.32
2022-11-19T05:31:14.755Z,-2.32
2022-11-19T05:33:42.500Z,-2.31
2022-11-19T05:36:10.455Z,-2.29
2022-11-19T05:38:39.030Z,-2.28
2022-11-19T05:41:07.382Z,-2.27
2022-11-19T05:43:35.370Z,-2.31
2022-11-19T05:46:03.676Z,-2.33
2022-11-19T05:48:31.456Z,-2.33
2022-11-19T05:50:59.323Z,-2.34
2022-11-19T05:53:27.727Z,-2.37
2022-11-19T05:55:55.471Z,-2.41
2022-11-19T05:58:23.218Z,-2.41
2022-11-19T06:00:56.070Z,-2.40
2022-11-19T06:03:23.850Z,-2.38
2022-11-19T06:05:52.752Z,-2.39
2022-11-19T06:08:20.494Z,-2.40
2022-11-19T06:10:48.223Z,-2.37
2022-11-19T06:13:16.082Z,-2.35
2022-11-19T06:15:43.821Z,-2.33
2022-11-19T06:18:11.650Z,-2.30
2022-11-19T06:20:39.398Z,-2.28
2022-11-19T06:23:07.129Z,-2.25
2022-11-19T06:25:35.105Z,-2.23
2022-11-19T06:28:02.850Z,-2.21
2022-11-19T06:30:30.614Z,-2.19
2022-11-19T06:32:58.919Z,-2.17
2022-11-19T06:35:26.644Z,-2.15
2022-11-19T06:37:54.384Z,-2.13
2022-11-19T06:40:22.147Z,-2.11
2022-11-19T06:42:51.121Z,-2.08
2022-11-19T06:45:19.360Z,-2.07
2022-11-19T06:47:49.296Z,-2.05
2022-11-19T06:50:18.373Z,-2.03
2022-11-19T06:52:46.216Z,-2.06
2022-11-19T06:55:14.741Z,-2.10
2022-11-19T06:57:42.688Z,-2.11
2022-11-19T07:00:12.490Z,-2.11
2022-11-19T07:02:41.421Z,-2.11
2022-11-19T07:05:09.783Z,-2.11
2022-11-19T07:07:37.583Z,-2.15
2022-11-19T07:10:07.566Z,-2.21
2022-11-19T07:12:35.336Z,-2.19
2022-11-19T07:15:04.772Z,-2.17
2022-11-19T07:17:33.165Z,-2.16
2022-11-19T07:20:01.237Z,-2.17
2022-11-19T07:22:28.960Z,-2.17
2022-11-19T07:24:56.735Z,-2.18
2022-11-19T07:27:24.547Z,-2.16
2022-11-19T07:29:52.370Z,-2.15
2022-11-19T07:32:20.211Z,-2.16
2022-11-19T07:34:47.939Z,-2.16
2022-11-19T07:37:15.673Z,-2.16
2022-11-19T07:39:43.560Z,-2.18
2022-11-19T07:42:29.920Z,-2.19
2022-11-19T07:44:57.675Z,-2.20
2022-11-19T07:47:25.433Z,-2.20
2022-11-19T07:49:54.513Z,-2.21
2022-11-19T07:52:22.337Z,-2.20
2022-11-19T07:54:50.084Z,-2.20
2022-11-19T07:57:17.881Z,-2.24
2022-11-19T07:59:46.149Z,-2.27
2022-11-19T08:02:15.224Z,-2.24
2022-11-19T08:04:43.802Z,-2.19
2022-11-19T08:07:11.878Z,-2.15
2022-11-19T08:09:39.941Z,-2.12
2022-11-19T08:12:07.775Z,-2.08
2022-11-19T08:14:35.530Z,-2.03
2022-11-19T08:17:22.034Z,-1.98
2022-11-19T08:19:49.949Z,-1.97
2022-11-19T08:22:17.731Z,-1.96
2022-11-19T08:24:45.549Z,-1.98
2022-11-19T08:27:13.328Z,-1.96
2022-11-19T08:29:41.553Z,-1.92
2022-11-19T08:32:09.328Z,-1.88
2022-11-19T08:34:37.351Z,-1.84
2022-11-19T08:37:06.363Z,-1.78
2022-11-19T08:39:34.405Z,-1.73
2022-11-19T08:42:21.072Z,-1.70
2022-11-19T08:44:49.085Z,-1.69
2022-11-19T08:47:17.261Z,-1.65
2022-11-19T08:49:45.273Z,-1.60
2022-11-19T08:52:14.462Z,-1.56
2022-11-19T08:54:42.189Z,-1.51
2022-11-19T08:57:10.288Z,-1.46
2022-11-19T08:59:38.706Z,-1.37
2022-11-19T09:02:06.443Z,-1.30
2022-11-19T09:04:34.268Z,-1.26
2022-11-19T09:07:02.977Z,-1.19
2022-11-19T09:09:30.841Z,-1.10
2022-11-19T09:11:58.607Z,-1.00
2022-11-19T09:14:27.447Z,-0.90
2022-11-19T09:16:55.757Z,-0.78
2022-11-19T09:19:23.487Z,-0.71
2022-11-19T09:21:51.238Z,-0.69
2022-11-19T09:24:19.583Z,-0.66
2022-11-19T09:26:52.653Z,-0.60
2022-11-19T09:29:21.234Z,-0.54
2022-11-19T09:31:49.199Z,-0.47
2022-11-19T09:34:17.230Z,-0.36
2022-11-19T09:36:45.437Z,-0.28
2022-11-19T09:39:13.314Z,-0.23
2022-11-19T09:41:47.971Z,-0.22
2022-11-19T09:44:49.221Z,-0.29
2022-11-19T09:47:32.290Z,-0.43
2022-11-19T09:50:19.962Z,-0.47
2022-11-19T09:53:14.912Z,-0.58
2022-11-19T09:55:46.931Z,-0.69
2022-11-19T09:58:22.857Z,-0.67
2022-11-19T10:00:50.695Z,-0.64
2022-11-19T10:03:22.525Z,-0.66
2022-11-19T10:05:59.690Z,-0.67
2022-11-19T10:08:46.369Z,-0.67
2022-11-19T10:11:59.118Z,-0.64
2022-11-19T10:14:43.698Z,-0.64
2022-11-19T10:17:33.587Z,-0.66
2022-11-19T10:20:27.703Z,-0.68
2022-11-19T10:23:10.460Z,-0.71
2022-11-19T10:25:49.030Z,-0.70
2022-11-19T10:28:27.884Z,-0.72
2022-11-19T10:31:07.503Z,-0.73
2022-11-19T10:34:03.310Z,-0.75
2022-11-19T10:36:43.190Z,-0.82
2022-11-19T10:39:19.497Z,-0.86
2022-11-19T10:41:56.226Z,-0.91
2022-11-19T10:44:37.383Z,-0.93
2022-11-19T10:47:27.027Z,-0.93
2022-11-19T10:49:57.028Z,-0.92
2022-11-19T10:52:40.056Z,-0.88
2022-11-19T10:55:33.700Z,-0.91
2022-11-19T10:58:12.365Z,-0.89
2022-11-19T11:00:42.425Z,-0.84
2022-11-19T11:03:28.044Z,-0.81
2022-11-19T11:06:06.748Z,-0.76
2022-11-19T11:08:49.977Z,-0.79
2022-11-19T11:11:57.421Z,-0.74
2022-11-19T11:14:44.845Z,-0.67
2022-11-19T11:17:26.050Z,-0.63
2022-11-19T11:20:02.311Z,-0.59
2022-11-19T11:22:32.006Z,-0.56
2022-11-19T11:25:05.871Z,-0.53
2022-11-19T11:27:36.137Z,-0.50
2022-11-19T11:30:11.302Z,-0.45
2022-11-19T11:32:41.357Z,-0.45
2022-11-19T11:35:36.030Z,-0.45
2022-11-19T11:38:05.363Z,-0.43
2022-11-19T11:40:33.192Z,-0.41
2022-11-19T11:43:02.157Z,-0.39
2022-11-19T11:45:37.536Z,-0.36
2022-11-19T11:48:08.870Z,-0.35
2022-11-19T11:50:38.004Z,-0.33
2022-11-19T11:53:10.341Z,-0.32
2022-11-19T11:55:39.563Z,-0.31
2022-11-19T11:58:31.753Z,-0.30
2022-11-19T12:01:19.947Z,-0.31
2022-11-19T12:03:56.854Z,-0.29
2022-11-19T12:06:29.885Z,-0.32
2022-11-19T12:09:09.006Z,-0.34
2022-11-19T12:11:57.873Z,-0.41
2022-11-19T12:14:57.144Z,-0.46
2022-11-19T12:17:38.044Z,-0.47
2022-11-19T12:20:25.612Z,-0.48
2022-11-19T12:23:19.312Z,-0.50
2022-11-19T12:26:13.138Z,-0.50
2022-11-19T12:29:10.005Z,-0.51
2022-11-19T12:31:49.056Z,-0.49
2022-11-19T12:34:44.796Z,-0.48
2022-11-19T12:37:26.930Z,-0.46
2022-11-19T12:40:08.389Z,-0.43
2022-11-19T12:42:46.844Z,-0.42
2022-11-19T12:45:37.318Z,-0.40
2022-11-19T12:48:20.105Z,-0.39
2022-11-19T12:50:53.889Z,-0.37
2022-11-19T12:53:31.014Z,-0.36
2022-11-19T12:56:11.201Z,-0.34
2022-11-19T12:59:31.487Z,-0.35
2022-11-19T13:02:04.541Z,-0.36
2022-11-19T13:04:43.826Z,-0.35
2022-11-19T13:07:35.988Z,-0.34
2022-11-19T13:10:38.704Z,-0.33
2022-11-19T13:13:09.462Z,-0.33
2022-11-19T13:15:59.478Z,-0.30
2022-11-19T13:18:33.104Z,-0.27
2022-11-19T13:21:25.538Z,-0.29
2022-11-19T13:23:56.570Z,-0.28
2022-11-19T13:26:31.595Z,-0.29
2022-11-19T13:29:32.691Z,-0.28
2022-11-19T13:32:39.584Z,-0.30
2022-11-19T13:35:17.204Z,-0.32
2022-11-19T13:38:00.189Z,-0.32
2022-11-19T13:40:44.624Z,-0.34
2022-11-19T13:43:36.768Z,-0.36
2022-11-19T13:46:13.399Z,-0.35
2022-11-19T13:49:25.444Z,-0.34
2022-11-19T13:51:59.690Z,-0.37
2022-11-19T13:54:36.640Z,-0.44
2022-11-19T13:57:07.271Z,-0.46
2022-11-19T13:59:48.091Z,-0.48
2022-11-19T14:02:31.395Z,-0.50
2022-11-19T14:05:08.512Z,-0.52
2022-11-19T14:07:56.744Z,-0.52
2022-11-19T14:10:57.384Z,-0.53
2022-11-19T14:13:40.153Z,-0.53
2022-11-19T14:17:01.793Z,-0.54
2022-11-19T14:19:48.609Z,-0.55
2022-11-19T14:23:03.339Z,-0.56
2022-11-19T14:26:06.110Z,-0.59
2022-11-19T14:28:46.504Z,-0.60
2022-11-19T14:31:16.840Z,-0.62
2022-11-19T14:33:47.891Z,-0.63
2022-11-19T14:36:28.189Z,-0.63
2022-11-19T14:39:15.796Z,-0.64
2022-11-19T14:41:45.176Z,-0.66
2022-11-19T14:44:32.400Z,-0.67
2022-11-19T14:47:30.059Z,-0.69
2022-11-19T14:50:09.088Z,-0.72
2022-11-19T14:52:50.451Z,-0.75
2022-11-19T14:55:25.223Z,-0.80
2022-11-19T14:58:03.040Z,-0.83
2022-11-19T15:00:38.879Z,-0.86
2022-11-19T15:03:16.347Z,-0.89
2022-11-19T15:05:47.122Z,-0.93
2022-11-19T15:08:18.513Z,-0.98
2022-11-19T15:11:05.418Z,-1.01
2022-11-19T15:13:39.847Z,-1.08
2022-11-19T15:16:27.507Z,-1.16
2022-11-19T15:19:32.523Z,-1.19
2022-11-19T15:22:19.267Z,-1.23
2022-11-19T15:25:12.570Z,-1.26
2022-11-19T15:28:05.250Z,-1.30
2022-11-19T15:30:56.855Z,-1.35
2022-11-19T15:33:45.565Z,-1.40
2022-11-19T15:36:21.876Z,-1.47
2022-11-19T15:39:01.822Z,-1.51
2022-11-19T15:41:35.364Z,-1.56
2022-11-19T15:44:10.550Z,-1.61
2022-11-19T15:46:47.728Z,-1.66
2022-11-19T15:49:29.013Z,-1.72
2022-11-19T15:52:08.161Z,-1.78
2022-11-19T15:54:39.284Z,-1.82
2022-11-19T15:57:27.222Z,-1.86
2022-11-19T16:00:02.312Z,-1.91
2022-11-19T16:02:54.488Z,-1.97
2022-11-19T16:05:33.719Z,-2.05
2022-11-19T16:08:07.450Z,-2.11
2022-11-19T16:10:37.829Z,-2.16
2022-11-19T16:13:44.202Z,-2.23
2022-11-19T16:16:44.649Z,-2.29
2022-11-19T16:19:17.898Z,-2.35
2022-11-19T16:21:50.350Z,-2.40
2022-11-19T16:24:40.843Z,-2.48
2022-11-19T16:27:18.198Z,-2.53
2022-11-19T16:29:47.286Z,-2.53
2022-11-19T16:32:19.341Z,-2.52
2022-11-19T16:34:51.080Z,-2.54
2022-11-19T16:37:22.736Z,-2.54
2022-11-19T16:39:53.202Z,-2.56
2022-11-19T16:42:27.939Z,-2.58
2022-11-19T16:45:07.677Z,-2.61
2022-11-19T16:48:00.518Z,-2.61
2022-11-19T16:50:37.556Z,-2.63
2022-11-19T16:53:08.959Z,-2.66
2022-11-19T16:55:40.580Z,-2.71
2022-11-19T16:58:17.817Z,-2.77
2022-11-19T17:00:50.153Z,-2.80
2022-11-19T17:03:20.892Z,-2.81
2022-11-19T17:05:53.477Z,-2.83
2022-11-19T17:08:25.306Z,-2.89
2022-11-19T17:11:34.894Z,-2.92
2022-11-19T17:14:23.178Z,-3.00
2022-11-19T17:16:54.165Z,-3.04
2022-11-19T17:19:32.523Z,-3.06
2022-11-19T17:22:07.983Z,-3.11
2022-11-19T17:24:44.236Z,-3.18
2022-11-19T17:27:27.840Z,-3.27
2022-11-19T17:30:02.989Z,-3.36
2022-11-19T17:32:39.009Z,-3.44
2022-11-19T17:35:40.640Z,-3.49
2022-11-19T17:38:18.426Z,-3.57
2022-11-19T17:40:51.131Z,-3.61
2022-11-19T17:43:56.659Z,-3.60
2022-11-19T17:46:28.932Z,-3.56
2022-11-19T17:48:57.637Z,-3.54
2022-11-19T17:51:27.018Z,-3.55
2022-11-19T17:53:56.677Z,-3.54
2022-11-19T17:56:30.606Z,-3.55
2022-11-19T17:59:00.193Z,-3.61
2022-11-19T18:01:28.209Z,-3.67
2022-11-19T18:03:56.556Z,-3.69
2022-11-19T18:06:24.680Z,-3.70
2022-11-19T18:08:53.990Z,-3.72
2022-11-19T18:11:27.339Z,-3.73
2022-11-19T18:13:59.747Z,-3.73
2022-11-19T18:16:38.038Z,-3.72
2022-11-19T18:19:23.607Z,-3.70
2022-11-19T18:21:52.992Z,-3.71
2022-11-19T18:24:21.703Z,-3.68
2022-11-19T18:26:49.436Z,-3.66
2022-11-19T18:29:17.179Z,-3.65
2022-11-19T18:31:51.698Z,-3.65
2022-11-19T18:34:22.944Z,-3.65
2022-11-19T18:36:51.556Z,-3.64
2022-11-19T18:39:19.920Z,-3.63
2022-11-19T18:41:51.662Z,-3.63
2022-11-19T18:44:34.417Z,-3.64
2022-11-19T18:47:05.731Z,-3.67
2022-11-19T18:49:35.523Z,-3.70
2022-11-19T18:52:06.412Z,-3.71
2022-11-19T18:54:35.226Z,-3.70
2022-11-19T18:57:03.830Z,-3.68
2022-11-19T18:59:32.378Z,-3.67
2022-11-19T19:02:00.229Z,-3.65
2022-11-19T19:04:28.090Z,-3.64
2022-11-19T19:06:56.599Z,-3.63
2022-11-19T19:09:25.726Z,-3.64
2022-11-19T19:12:13.800Z,-3.65
2022-11-19T19:14:45.349Z,-3.64
2022-11-19T19:17:15.932Z,-3.63
2022-11-19T19:19:43.682Z,-3.63
2022-11-19T19:22:12.537Z,-3.63
2022-11-19T19:24:40.258Z,-3.61
2022-11-19T19:27:11.203Z,-3.58
2022-11-19T19:29:40.403Z,-3.55
2022-11-19T19:32:09.303Z,-3.53
2022-11-19T19:34:37.227Z,-3.51
2022-11-19T19:37:06.059Z,-3.51
2022-11-19T19:39:33.842Z,-3.53
2022-11-19T19:42:01.588Z,-3.54
2022-11-19T19:44:29.325Z,-3.58
2022-11-19T19:46:59.867Z,-3.64
2022-11-19T19:49:27.975Z,-3.70
2022-11-19T19:51:56.218Z,-3.70
2022-11-19T19:54:24.018Z,-3.68
2022-11-19T19:56:53.882Z,-3.66
2022-11-19T19:59:21.810Z,-3.64
2022-11-19T20:01:51.851Z,-3.62
2022-11-19T20:04:20.585Z,-3.60
2022-11-19T20:06:48.399Z,-3.57
2022-11-19T20:09:17.236Z,-3.56
2022-11-19T20:11:45.796Z,-3.54
2022-11-19T20:14:13.842Z,-3.52
2022-11-19T20:16:42.506Z,-3.50
2022-11-19T20:19:15.144Z,-3.49
2022-11-19T20:21:43.090Z,-3.49
2022-11-19T20:24:14.089Z,-3.50
2022-11-19T20:26:43.356Z,-3.52
2022-11-19T20:29:14.715Z,-3.52
2022-11-19T20:31:51.815Z,-3.53
2022-11-19T20:34:19.681Z,-3.51
2022-11-19T20:36:47.671Z,-3.50
2022-11-19T20:39:15.568Z,-3.49
2022-11-19T20:42:02.433Z,-3.49
2022-11-19T20:44:31.151Z,-3.48
2022-11-19T20:47:03.125Z,-3.45
2022-11-19T20:49:36.517Z,-3.42
2022-11-19T20:52:06.357Z,-3.38
2022-11-19T20:54:35.030Z,-3.35
2022-11-19T20:57:04.823Z,-3.32
2022-11-19T20:59:33.324Z,-3.30
2022-11-19T21:02:01.362Z,-3.30
2022-11-19T21:04:31.910Z,-3.28
2022-11-19T21:06:59.846Z,-3.26
2022-11-19T21:09:31.547Z,-3.24
2022-11-19T21:11:59.494Z,-3.22
2022-11-19T21:14:29.320Z,-3.20
2022-11-19T21:16:57.899Z,-3.19
2022-11-19T21:19:26.769Z,-3.17
2022-11-19T21:21:55.750Z,-3.17
2022-11-19T21:24:25.611Z,-3.17
2022-11-19T21:26:54.657Z,-3.18
2022-11-19T21:29:23.734Z,-3.22
2022-11-19T21:31:53.587Z,-3.24
2022-11-19T21:34:22.739Z,-3.33
2022-11-19T21:36:51.689Z,-3.37
2022-11-19T21:39:21.777Z,-3.41
2022-11-19T21:41:51.464Z,-3.42
2022-11-19T21:44:21.761Z,-3.43
2022-11-19T21:46:52.295Z,-3.46
2022-11-19T21:49:20.473Z,-3.48
2022-11-19T21:51:50.573Z,-3.49
2022-11-19T21:54:19.745Z,-3.52
2022-11-19T21:56:47.733Z,-3.52
2022-11-19T21:59:15.538Z,-3.53
2022-11-19T22:01:44.499Z,-3.54
2022-11-19T22:04:14.327Z,-3.56
2022-11-19T22:06:43.395Z,-3.56
2022-11-19T22:09:11.385Z,-3.56
2022-11-19T22:11:40.156Z,-3.55
2022-11-19T22:14:11.683Z,-3.54
2022-11-19T22:16:40.919Z,-3.52
2022-11-19T22:19:12.128Z,-3.51
2022-11-19T22:21:41.181Z,-3.51
2022-11-19T22:24:09.204Z,-3.50
2022-11-19T22:26:37.155Z,-3.49
2022-11-19T22:29:05.070Z,-3.51
2022-11-19T22:31:32.972Z,-3.53
2022-11-19T22:34:00.718Z,-3.55
2022-11-19T22:36:33.301Z,-3.57
2022-11-19T22:39:01.084Z,-3.56
2022-11-19T22:41:28.843Z,-3.55
2022-11-19T22:43:58.896Z,-3.54
2022-11-19T22:46:28.301Z,-3.54
2022-11-19T22:48:58.371Z,-3.59
2022-11-19T22:51:27.230Z,-3.66
2022-11-19T22:53:55.347Z,-3.72
2022-11-19T22:56:30.857Z,-3.75
2022-11-19T22:58:59.833Z,-3.75
2022-11-19T23:01:30.679Z,-3.74
2022-11-19T23:04:02.801Z,-3.75
2022-11-19T23:06:30.793Z,-3.77
2022-11-19T23:08:58.664Z,-3.79
2022-11-19T23:11:46.112Z,-3.81
2022-11-19T23:14:17.715Z,-3.81
2022-11-19T23:16:46.651Z,-3.84
2022-11-19T23:19:19.923Z,-3.89
2022-11-19T23:21:49.329Z,-3.94
2022-11-19T23:24:18.457Z,-3.99
2022-11-19T23:26:47.242Z,-4.02
2022-11-19T23:29:15.335Z,-4.06
2022-11-19T23:31:43.320Z,-4.11
2022-11-19T23:34:12.012Z,-4.14
2022-11-19T23:36:41.553Z,-4.15
2022-11-19T23:39:16.033Z,-4.15
2022-11-19T23:41:44.739Z,-4.17
2022-11-19T23:44:13.829Z,-4.20
2022-11-19T23:46:42.598Z,-4.22
2022-11-19T23:49:10.932Z,-4.25
2022-11-19T23:51:40.300Z,-4.28
2022-11-19T23:54:09.503Z,-4.29
2022-11-19T23:56:37.364Z,-4.29
2022-11-19T23:59:06.850Z,-4.26
